logo tempoitalia

Diretta Meteo Philip Philip, Stati Uniti (USA)domenica 30 agosto ore 23:55

Mappa
Sereno 14 °C Poco Nuvoloso 24 Ore: T.min 14 T.max 36
Ponente Ovest Km/h 9.3 Punto di rugiada: 11 °C Umidità: 82% Visibilità: 10 Km
Il sole sorge alle: 06:07 Il sole tramonta alle: 19:26
30 Agosto 2026 23:55 tempo osservato: Poco Nuvoloso Poco Nuvoloso 14 82 1014 vento: Nord O 9.3
30 Agosto 2026 22:55 tempo osservato: Sereno Sereno 16 72 1013 vento: Nord O/NO 11.1
30 Agosto 2026 21:55 tempo osservato: Sereno Sereno 17 67 1013 vento: Nord NO 9.3
30 Agosto 2026 20:55 tempo osservato: Sereno Sereno 18 63 1012 vento: Nord N/NO 24
30 Agosto 2026 19:55 tempo osservato: Sereno Sereno 19 59 1010 vento: Nord N/NO 44.4
30 Agosto 2026 18:55 tempo osservato: Sereno Sereno 23 53 1007 vento: Nord NO 59.2
30 Agosto 2026 18:44 tempo osservato: Sereno Sereno 23 53 1007 vento: Nord N/NO 66.6
30 Agosto 2026 17:55 tempo osservato: Sereno Sereno 34 23 1006 vento: Nord S 11.1
30 Agosto 2026 16:55 tempo osservato: Sereno Sereno 36 20 1006 vento: Nord O 16.7
30 Agosto 2026 15:55 tempo osservato: Sereno Sereno 35 21 1006 vento: Nord O/SO 20.3
30 Agosto 2026 14:55 tempo osservato: Sereno Sereno 34 30 1006 vento: Nord SO 20.3
30 Agosto 2026 13:55 tempo osservato: Sereno Sereno 34 32 1007 vento: Nord O/SO 20.3
30 Agosto 2026 12:55 tempo osservato: Sereno Sereno 32 40 1007 vento: Nord O 9.3
30 Agosto 2026 11:55 tempo osservato: Sereno Sereno 31 43 1008 vento: Nord NO 18.5
30 Agosto 2026 10:55 tempo osservato: Sereno Sereno 29 51 1008 vento: Nord O 20.3
30 Agosto 2026 09:55 tempo osservato: Sereno Sereno 27 57 1008 vento: Nord O 20.3
30 Agosto 2026 08:55 tempo osservato: Sereno Sereno 24 69 1008 vento: Nord O 20.3
30 Agosto 2026 07:55 tempo osservato: Sereno Sereno 22 68 1008 vento: Nord O 18.5
30 Agosto 2026 06:55 tempo osservato: Sereno Sereno 19 63 1008 vento: Nord O 11.1
30 Agosto 2026 05:55 tempo osservato: Sereno Sereno 18 63 1007 vento: Nord SO 11.1
30 Agosto 2026 04:55 tempo osservato: Sereno Sereno 19 63 1007 vento: Nord N 5.5
30 Agosto 2026 03:55 tempo osservato: Sereno Sereno 22 53 1006 vento: Nord SO 20.3
30 Agosto 2026 02:55 tempo osservato: Sereno Sereno 22 56 1006 vento: Nord O/SO 22.2
30 Agosto 2026 01:55 tempo osservato: Sereno Sereno 23 53 1006 vento: Nord O/SO 14.8
30 Agosto 2026 00:55 tempo osservato: Sereno Sereno 23 53 1006 vento: Nord SO 11.1